Time;durP1;ratioP1;P1;durP2;ratioP2;P2;SDS_P1;SDS_P2;PMS_P1;PMS_P2;Temp;Humidity;BMP_temperature;BMP_pressure;BME280_temperature;BME280_humidity;BME280_pressure;Samples;Min_cycle;Max_cycle;Signal;HPM_P1;HPM_P2
2021/04/05 00:02:00;;;;;;;1.65;0.43;;;12.00;63.40;;;;;;4804593;29;21188;-80
2021/04/05 00:04:27;;;;;;;1.30;0.40;;;11.90;63.60;;;;;;4793847;29;20041;-79
2021/04/05 00:06:55;;;;;;;0.85;0.35;;;12.00;63.60;;;;;;4793763;29;20138;-79
2021/04/05 00:09:22;;;;;;;1.08;0.50;;;12.10;63.40;;;;;;4793421;29;20529;-79
2021/04/05 00:11:50;;;;;;;1.10;0.40;;;12.10;63.60;;;;;;4805937;29;20055;-79
2021/04/05 00:14:17;;;;;;;1.83;0.30;;;12.10;63.60;;;;;;4793569;29;20046;-79
2021/04/05 00:16:44;;;;;;;1.23;0.40;;;12.20;63.70;;;;;;4807369;29;20054;-79
2021/04/05 00:19:13;;;;;;;0.90;0.35;;;12.10;63.70;;;;;;4792620;29;20498;-79
2021/04/05 00:21:40;;;;;;;1.52;0.55;;;12.10;64.00;;;;;;4790462;29;20043;-79
2021/04/05 00:24:09;;;;;;;0.80;0.30;;;12.30;63.90;;;;;;4808336;29;20051;-79
2021/04/05 00:26:36;;;;;;;1.63;0.63;;;12.30;64.00;;;;;;4790481;29;20057;-79
2021/04/05 00:29:04;;;;;;;1.65;0.70;;;12.00;64.40;;;;;;4808595;29;20043;-79
2021/04/05 00:31:32;;;;;;;2.42;1.00;;;11.40;65.50;;;;;;4790481;29;20042;-79
2021/04/05 00:33:59;;;;;;;2.13;0.95;;;11.10;66.80;;;;;;4802325;29;20047;-79
2021/04/05 00:36:28;;;;;;;1.70;1.00;;;10.90;67.50;;;;;;4790344;29;20054;-79
2021/04/05 00:38:55;;;;;;;4.10;1.70;;;11.10;68.00;;;;;;4793110;29;20506;-79
2021/04/05 00:41:23;;;;;;;2.20;1.10;;;11.70;67.10;;;;;;4804558;29;20065;-79
2021/04/05 00:43:52;;;;;;;2.53;1.23;;;11.80;66.80;;;;;;4791729;29;20059;-79
2021/04/05 00:46:21;;;;;;;2.00;0.90;;;11.80;67.00;;;;;;4789855;29;20076;-79
2021/04/05 00:48:50;;;;;;;1.45;0.80;;;11.80;67.20;;;;;;4800157;29;20521;-79
2021/04/05 00:51:20;;;;;;;2.33;1.08;;;11.90;67.40;;;;;;4789705;29;20137;-79
2021/04/05 00:53:50;;;;;;;2.30;1.10;;;11.80;67.70;;;;;;4804479;29;20047;-79
2021/04/05 00:56:20;;;;;;;2.45;0.95;;;11.90;67.50;;;;;;4792368;29;20540;-79
2021/04/05 00:58:49;;;;;;;2.08;0.70;;;12.00;67.70;;;;;;4803483;29;20498;-78
2021/04/05 01:01:19;;;;;;;2.70;0.80;;;12.10;67.70;;;;;;4792830;29;20050;-79
2021/04/05 01:03:49;;;;;;;1.83;0.80;;;12.10;67.50;;;;;;4790903;29;20047;-79
2021/04/05 01:06:19;;;;;;;1.00;0.65;;;12.10;67.50;;;;;;4791916;29;20047;-79
2021/04/05 01:08:48;;;;;;;1.65;0.80;;;12.00;67.60;;;;;;4803889;29;20035;-79
2021/04/05 01:11:19;;;;;;;1.17;0.60;;;11.80;67.70;;;;;;4793254;29;20051;-79
2021/04/05 01:13:47;;;;;;;3.28;0.88;;;11.70;67.70;;;;;;4793740;29;20049;-80
2021/04/05 01:16:16;;;;;;;1.40;0.60;;;11.50;68.00;;;;;;4783714;29;20058;-79
2021/04/05 01:18:43;;;;;;;1.27;0.60;;;11.70;68.00;;;;;;4790331;29;20062;-79
2021/04/05 01:21:11;;;;;;;0.95;0.50;;;11.50;68.00;;;;;;4794178;29;20051;-79
2021/04/05 01:23:40;;;;;;;1.45;0.65;;;11.50;68.00;;;;;;4791203;29;20111;-79
2021/04/05 01:26:07;;;;;;;1.10;0.60;;;11.60;68.20;;;;;;4802943;29;20046;-79
2021/04/05 01:28:35;;;;;;;1.05;0.50;;;11.60;68.20;;;;;;4790816;29;20054;-79
2021/04/05 01:31:03;;;;;;;1.58;0.50;;;11.70;68.40;;;;;;4793080;29;20872;-79
2021/04/05 01:33:33;;;;;;;2.15;0.68;;;11.60;68.30;;;;;;4788957;29;20046;-79
2021/04/05 01:36:03;;;;;;;1.88;0.50;;;11.60;68.60;;;;;;4800382;29;20050;-79
2021/04/05 01:38:36;;;;;;;1.30;0.47;;;11.60;68.70;;;;;;4792008;29;20508;-79
2021/04/05 01:41:07;;;;;;;1.02;0.60;;;11.60;68.90;;;;;;4791472;29;20473;-79
2021/04/05 01:43:35;;;;;;;1.20;0.60;;;11.50;69.00;;;;;;4789391;29;20539;-79
2021/04/05 01:46:03;;;;;;;2.08;0.60;;;11.40;69.20;;;;;;4792232;29;20063;-80
2021/04/05 01:48:32;;;;;;;2.03;0.60;;;11.40;69.20;;;;;;4791979;29;20078;-80
2021/04/05 01:51:03;;;;;;;6.63;0.60;;;11.30;69.30;;;;;;4789034;29;20668;-80
2021/04/05 01:53:31;;;;;;;1.58;0.68;;;11.20;69.70;;;;;;4805013;29;20058;-80
2021/04/05 01:56:00;;;;;;;1.05;0.63;;;11.20;69.50;;;;;;4804363;29;20058;-80
2021/04/05 01:58:29;;;;;;;0.82;0.50;;;11.20;69.70;;;;;;4794089;29;20043;-80
2021/04/05 02:00:57;;;;;;;1.17;0.50;;;11.20;69.90;;;;;;4795870;29;20413;-80
2021/04/05 02:03:28;;;;;;;0.93;0.40;;;11.20;69.90;;;;;;4794178;29;20077;-79
2021/04/05 02:06:01;;;;;;;1.48;0.40;;;11.10;70.20;;;;;;4810460;29;20054;-80
2021/04/05 02:08:30;;;;;;;1.27;0.60;;;11.10;70.40;;;;;;4792872;29;20055;-79
2021/04/05 02:11:01;;;;;;;1.10;0.52;;;11.10;70.40;;;;;;4796167;29;20043;-79
2021/04/05 02:13:29;;;;;;;1.75;0.63;;;11.00;70.40;;;;;;4795267;29;20436;-79
2021/04/05 02:15:58;;;;;;;1.40;0.50;;;11.00;70.60;;;;;;4806870;29;20134;-80
2021/04/05 02:18:26;;;;;;;0.90;0.43;;;11.00;71.00;;;;;;4793452;29;20351;-79
2021/04/05 02:20:54;;;;;;;1.58;0.45;;;10.60;71.80;;;;;;4808203;29;20080;-79
2021/04/05 02:23:24;;;;;;;1.63;0.52;;;10.70;72.10;;;;;;4804342;29;20047;-79
2021/04/05 02:26:08;;;;;;;1.33;0.80;;;10.90;72.00;;;;;;4808688;29;20487;-79
2021/04/05 02:28:40;;;;;;;1.48;0.70;;;10.90;71.80;;;;;;4795448;29;20042;-79
2021/04/05 02:31:09;;;;;;;2.13;0.60;;;10.70;72.20;;;;;;4794445;29;20053;-80
2021/04/05 02:33:38;;;;;;;0.82;0.55;;;10.70;72.30;;;;;;4794743;29;20383;-79
2021/04/05 02:36:08;;;;;;;1.52;0.50;;;10.70;71.90;;;;;;4804543;29;20097;-79
2021/04/05 02:38:37;;;;;;;1.10;0.50;;;10.50;71.80;;;;;;4809554;29;20137;-79
2021/04/05 02:41:08;;;;;;;1.77;0.30;;;10.50;72.00;;;;;;4793284;29;20051;-79
2021/04/05 02:43:37;;;;;;;1.38;0.50;;;10.70;71.90;;;;;;4806529;29;20133;-80
2021/04/05 02:46:06;;;;;;;0.90;0.50;;;10.70;71.80;;;;;;4794750;29;20051;-80
2021/04/05 02:48:37;;;;;;;1.27;0.55;;;10.70;71.90;;;;;;4807341;29;20164;-79
2021/04/05 02:51:07;;;;;;;0.98;0.60;;;10.60;72.00;;;;;;4792957;29;20127;-79
2021/04/05 02:53:36;;;;;;;1.45;0.50;;;10.50;72.00;;;;;;4794733;29;20035;-80
2021/04/05 02:56:05;;;;;;;0.80;0.50;;;10.50;72.30;;;;;;4806531;29;20479;-79
2021/04/05 02:58:35;;;;;;;1.00;0.50;;;10.40;72.10;;;;;;4793674;29;20046;-79
2021/04/05 03:01:06;;;;;;;1.05;0.50;;;10.40;72.20;;;;;;4794295;29;20062;-79
2021/04/05 03:03:34;;;;;;;3.95;0.50;;;10.40;72.10;;;;;;4791897;29;20074;-79
2021/04/05 03:06:03;;;;;;;1.05;0.60;;;10.30;72.10;;;;;;4793018;29;20066;-79
2021/04/05 03:08:31;;;;;;;1.05;0.47;;;10.00;73.00;;;;;;4791307;29;20046;-80
2021/04/05 03:11:03;;;;;;;0.68;0.40;;;10.10;73.00;;;;;;4803968;29;20468;-80
2021/04/05 03:13:33;;;;;;;1.25;0.30;;;10.30;72.90;;;;;;4808013;29;20069;-79
2021/04/05 03:16:04;;;;;;;1.20;0.45;;;10.10;73.10;;;;;;4792350;29;20046;-79
2021/04/05 03:18:32;;;;;;;1.38;0.40;;;10.00;73.30;;;;;;4801714;29;20097;-79
2021/04/05 03:21:03;;;;;;;1.92;0.50;;;10.10;73.00;;;;;;4795276;29;20043;-78
2021/04/05 03:23:31;;;;;;;2.05;0.45;;;10.00;73.00;;;;;;4794566;29;20873;-79
2021/04/05 03:26:00;;;;;;;0.68;0.40;;;10.00;72.80;;;;;;4807847;29;20051;-79
2021/04/05 03:28:28;;;;;;;0.90;0.40;;;10.10;72.70;;;;;;4791138;29;20065;-79
2021/04/05 03:31:00;;;;;;;0.85;0.43;;;10.10;72.70;;;;;;4794452;29;20047;-79
2021/04/05 03:33:39;;;;;;;2.15;0.57;;;10.00;72.70;;;;;;4796222;29;20070;-80
2021/04/05 03:36:14;;;;;;;2.45;0.38;;;10.00;72.70;;;;;;4809040;29;20074;-79
2021/04/05 03:38:41;;;;;;;0.47;0.30;;;9.90;73.00;;;;;;4809616;29;20051;-80
2021/04/05 03:41:16;;;;;;;1.00;0.52;;;9.80;73.20;;;;;;4778979;29;20050;-79
2021/04/05 03:43:53;;;;;;;1.45;0.40;;;9.90;73.30;;;;;;4794884;29;20070;-79
2021/04/05 03:46:27;;;;;;;1.25;0.30;;;9.90;73.20;;;;;;4806231;29;20058;-79
2021/04/05 03:49:01;;;;;;;0.80;0.40;;;9.80;73.50;;;;;;4795093;29;20065;-79
2021/04/05 03:51:34;;;;;;;1.27;0.55;;;9.70;73.50;;;;;;4792368;29;20055;-79
2021/04/05 03:54:06;;;;;;;0.57;0.30;;;9.60;73.80;;;;;;4793333;29;20058;-79
2021/04/05 03:56:40;;;;;;;0.98;0.40;;;9.70;73.90;;;;;;4790223;29;20054;-79
2021/04/05 03:59:11;;;;;;;0.60;0.40;;;9.70;73.80;;;;;;4795706;29;20050;-79
2021/04/05 04:01:45;;;;;;;1.98;0.43;;;9.70;73.80;;;;;;4793644;29;20421;-79
2021/04/05 04:04:22;;;;;;;0.85;0.60;;;9.70;73.80;;;;;;4794603;29;20527;-79
2021/04/05 04:07:06;;;;;;;0.70;0.50;;;9.70;74.00;;;;;;4794289;29;20042;-79
2021/04/05 04:09:36;;;;;;;1.50;0.60;;;9.70;74.00;;;;;;4794184;29;20039;-80
2021/04/05 04:12:09;;;;;;;2.30;0.40;;;9.50;74.40;;;;;;4786330;29;20051;-79
2021/04/05 04:14:38;;;;;;;0.73;0.40;;;9.60;74.40;;;;;;4798139;29;20103;-79
2021/04/05 04:17:07;;;;;;;0.98;0.45;;;9.60;74.70;;;;;;4792946;29;20046;-79
2021/04/05 04:19:37;;;;;;;0.85;0.35;;;9.60;74.50;;;;;;4809495;29;20043;-79
2021/04/05 04:22:06;;;;;;;1.00;0.43;;;9.60;74.70;;;;;;4793259;29;20082;-79
2021/04/05 04:24:34;;;;;;;0.60;0.40;;;9.50;75.00;;;;;;4795257;29;20049;-79
2021/04/05 04:27:02;;;;;;;1.63;0.55;;;9.60;74.80;;;;;;4792352;29;20047;-79
2021/04/05 04:29:30;;;;;;;2.05;0.50;;;9.70;74.50;;;;;;4791553;29;20075;-79
2021/04/05 04:31:58;;;;;;;2.13;0.50;;;9.50;74.60;;;;;;4795709;29;20150;-79
2021/04/05 04:34:26;;;;;;;1.40;0.60;;;9.50;75.10;;;;;;4808037;29;20051;-79
2021/04/05 04:37:01;;;;;;;0.55;0.47;;;9.40;75.30;;;;;;4792093;29;20058;-79
2021/04/05 04:39:30;;;;;;;0.70;0.40;;;9.30;76.30;;;;;;4792303;29;20126;-79
2021/04/05 04:41:57;;;;;;;1.50;0.57;;;9.50;76.30;;;;;;4791117;29;20502;-79
2021/04/05 04:44:25;;;;;;;0.75;0.32;;;9.40;76.60;;;;;;4797482;29;20309;-80
2021/04/05 04:46:52;;;;;;;3.15;0.50;;;9.20;77.50;;;;;;4802209;29;20042;-79
2021/04/05 04:49:20;;;;;;;2.58;0.45;;;9.30;77.10;;;;;;4795418;29;21815;-79
2021/04/05 04:51:47;;;;;;;0.60;0.40;;;9.30;76.90;;;;;;4793537;29;20633;-79
2021/04/05 04:54:16;;;;;;;1.60;0.60;;;9.30;76.20;;;;;;4781355;29;20532;-79
2021/04/05 04:56:43;;;;;;;1.27;0.47;;;9.20;76.10;;;;;;4806577;29;20058;-79
2021/04/05 04:59:12;;;;;;;1.30;0.40;;;9.20;75.90;;;;;;4803652;29;20515;-79
2021/04/05 05:01:41;;;;;;;0.85;0.47;;;9.10;76.30;;;;;;4804143;29;20039;-79
2021/04/05 05:04:11;;;;;;;2.13;0.60;;;9.00;76.30;;;;;;4796796;29;20070;-79
2021/04/05 05:06:42;;;;;;;1.58;0.50;;;9.00;76.20;;;;;;4794262;29;20126;-79
2021/04/05 05:09:10;;;;;;;1.10;0.40;;;9.00;76.30;;;;;;4809041;29;20163;-79
2021/04/05 05:11:40;;;;;;;1.58;0.60;;;9.00;76.50;;;;;;4789174;29;20047;-79
2021/04/05 05:14:08;;;;;;;0.82;0.50;;;9.00;76.50;;;;;;4809001;29;20058;-79
2021/04/05 05:16:36;;;;;;;1.23;0.80;;;8.80;76.90;;;;;;4794191;29;20046;-79
2021/04/05 05:19:04;;;;;;;1.58;0.43;;;8.90;77.00;;;;;;4793030;29;20054;-79
2021/04/05 05:21:36;;;;;;;1.55;0.60;;;8.90;76.90;;;;;;4791931;29;20135;-79
2021/04/05 05:24:07;;;;;;;0.95;0.50;;;9.00;77.00;;;;;;4792263;29;20424;-79
2021/04/05 05:26:38;;;;;;;2.13;0.57;;;8.90;77.10;;;;;;4794582;29;20038;-79
2021/04/05 05:29:07;;;;;;;3.55;0.80;;;8.80;77.50;;;;;;4792503;29;20070;-80
2021/04/05 05:31:37;;;;;;;2.85;0.60;;;8.90;77.90;;;;;;4791153;29;20050;-79
2021/04/05 05:34:07;;;;;;;1.70;0.60;;;9.00;77.60;;;;;;4793424;29;20169;-79
2021/04/05 05:36:36;;;;;;;0.82;0.43;;;9.10;77.10;;;;;;4807613;29;20141;-79
2021/04/05 05:39:05;;;;;;;0.93;0.40;;;9.10;77.20;;;;;;4778590;29;20051;-79
2021/04/05 05:41:54;;;;;;;4.88;1.50;;;9.10;77.00;;;;;;4793212;29;20434;-79
2021/04/05 05:44:32;;;;;;;2.05;0.70;;;9.10;77.20;;;;;;4791365;29;20095;-79
2021/04/05 05:47:07;;;;;;;4.88;1.23;;;9.10;77.20;;;;;;4807867;29;20525;-78
2021/04/05 05:49:40;;;;;;;4.07;1.20;;;9.10;77.30;;;;;;4791440;29;20046;-79
2021/04/05 05:52:50;;;;;;;5.10;1.10;;;9.00;77.30;;;;;;4800909;29;20063;-79
2021/04/05 05:56:03;;;;;;;2.03;1.15;;;9.00;77.70;;;;;;4787917;29;20070;-79
2021/04/05 05:58:41;;;;;;;1.95;1.10;;;9.10;77.40;;;;;;4769210;29;20141;-79
2021/04/05 06:01:24;;;;;;;6.00;1.70;;;9.20;77.30;;;;;;4795569;29;20059;-79
2021/04/05 06:03:58;;;;;;;47.28;6.38;;;9.40;76.90;;;;;;4788879;29;20050;-79
2021/04/05 06:06:40;;;;;;;14.00;2.78;;;9.30;77.20;;;;;;4794351;29;20076;-78
2021/04/05 06:09:15;;;;;;;11.07;1.90;;;9.20;77.60;;;;;;4790597;29;20047;-79
2021/04/05 06:11:59;;;;;;;3.50;1.05;;;9.10;78.10;;;;;;4797450;29;20050;-79
2021/04/05 06:14:50;;;;;;;2.03;1.08;;;8.90;79.00;;;;;;4791459;29;20137;-79
2021/04/05 06:17:29;;;;;;;3.50;1.08;;;8.90;79.60;;;;;;4791991;29;20491;-79
2021/04/05 06:20:06;;;;;;;4.22;1.27;;;9.00;80.10;;;;;;4800170;29;20063;-79
2021/04/05 06:22:51;;;;;;;11.77;1.38;;;9.20;80.20;;;;;;4791087;29;20057;-79
2021/04/05 06:25:27;;;;;;;10.45;1.27;;;9.10;80.40;;;;;;4792509;29;20038;-79
2021/04/05 06:28:04;;;;;;;17.77;2.57;;;9.20;80.20;;;;;;4798191;29;20055;-79
2021/04/05 06:30:44;;;;;;;8.45;1.77;;;9.40;80.30;;;;;;4807940;29;20695;-79
2021/04/05 06:33:20;;;;;;;5.78;1.65;;;9.30;79.80;;;;;;4795393;29;20161;-79
2021/04/05 06:36:23;;;;;;;3.85;1.15;;;9.40;80.30;;;;;;4791575;29;21390;-79
2021/04/05 06:38:55;;;;;;;3.88;1.15;;;9.60;79.70;;;;;;4742174;30;20047;-79
2021/04/05 06:41:52;;;;;;;2.47;1.13;;;9.60;79.20;;;;;;4792975;29;20515;-79
2021/04/05 06:45:10;;;;;;;4.10;1.45;;;9.50;79.70;;;;;;4795633;29;20100;-79
2021/04/05 06:48:34;;;;;;;3.70;1.60;;;9.60;80.10;;;;;;4810147;29;20558;-79
2021/04/05 06:51:06;;;;;;;3.17;1.40;;;9.40;81.10;;;;;;4725138;30;20066;-79
2021/04/05 06:54:18;;;;;;;3.38;1.40;;;9.40;81.70;;;;;;4791508;29;20059;-79
2021/04/05 06:56:57;;;;;;;3.30;1.33;;;9.40;81.80;;;;;;4793434;29;20454;-79
2021/04/05 06:59:36;;;;;;;2.90;1.13;;;9.40;82.10;;;;;;4797028;29;20043;-79
2021/04/05 07:02:32;;;;;;;2.67;1.10;;;9.40;82.50;;;;;;4793828;29;20062;-78
2021/04/05 07:05:13;;;;;;;1.95;1.20;;;9.50;82.10;;;;;;4792429;29;20069;-78
2021/04/05 07:07:47;;;;;;;2.17;1.27;;;9.70;81.70;;;;;;4798330;29;20142;-78
2021/04/05 07:10:24;;;;;;;3.78;1.55;;;9.80;81.10;;;;;;4794532;29;20049;-79
2021/04/05 07:13:00;;;;;;;2.63;1.30;;;9.90;80.60;;;;;;4811793;29;20060;-79
2021/04/05 07:15:45;;;;;;;3.73;1.67;;;10.10;80.50;;;;;;4795973;29;20082;-79
2021/04/05 07:18:31;;;;;;;3.42;1.60;;;10.20;80.00;;;;;;4806877;29;20478;-79
2021/04/05 07:21:11;;;;;;;4.45;2.22;;;10.30;79.40;;;;;;4791976;29;20043;-78
2021/04/05 07:23:52;;;;;;;3.90;1.73;;;10.50;78.80;;;;;;4811583;29;20081;-76
2021/04/05 07:26:27;;;;;;;4.22;1.88;;;10.50;78.80;;;;;;4792211;29;20808;-75
2021/04/05 07:29:01;;;;;;;5.10;2.50;;;10.50;78.40;;;;;;4811356;29;20138;-76
2021/04/05 07:31:37;;;;;;;3.00;1.98;;;10.70;78.20;;;;;;4797288;29;20059;-77
2021/04/05 07:34:26;;;;;;;5.28;2.70;;;10.60;78.00;;;;;;4783563;29;20086;-78
2021/04/05 07:37:11;;;;;;;4.82;2.65;;;10.60;77.90;;;;;;4789217;29;20054;-77
2021/04/05 07:39:46;;;;;;;5.22;2.50;;;10.70;77.50;;;;;;4793850;29;20536;-77
2021/04/05 07:42:21;;;;;;;2.97;2.20;;;10.80;77.40;;;;;;4807933;29;20091;-77
2021/04/05 07:44:56;;;;;;;3.83;2.15;;;10.70;77.70;;;;;;4807599;29;20042;-77
2021/04/05 07:47:34;;;;;;;5.93;2.72;;;10.80;77.10;;;;;;4806302;29;20062;-77
2021/04/05 07:50:09;;;;;;;4.97;2.42;;;10.80;77.30;;;;;;4808326;29;20058;-76
2021/04/05 07:52:44;;;;;;;4.32;2.42;;;10.90;76.80;;;;;;4799019;29;20051;-76
2021/04/05 07:55:14;;;;;;;4.28;2.55;;;11.10;76.60;;;;;;4807314;29;20079;-78
2021/04/05 07:57:54;;;;;;;5.93;2.78;;;11.30;76.20;;;;;;4793946;29;20050;-77
2021/04/05 08:01:02;;;;;;;4.30;2.42;;;11.40;75.90;;;;;;4797690;29;20100;-80
2021/04/05 08:03:53;;;;;;;5.00;2.15;;;11.40;75.20;;;;;;4792282;29;20130;-79
2021/04/05 08:06:28;;;;;;;3.35;2.03;;;11.50;75.30;;;;;;4790696;29;20449;-77
2021/04/05 08:08:59;;;;;;;2.53;1.90;;;11.60;75.20;;;;;;4794213;29;20046;-82
2021/04/05 08:11:52;;;;;;;3.58;2.30;;;11.60;75.20;;;;;;4795213;29;20051;-78
2021/04/05 08:14:30;;;;;;;3.63;2.33;;;11.70;74.60;;;;;;4785924;29;20585;-78
2021/04/05 08:17:07;;;;;;;3.47;2.40;;;11.80;74.10;;;;;;4793814;29;20071;-77
2021/04/05 08:19:51;;;;;;;5.45;2.33;;;11.80;73.90;;;;;;4803802;29;20035;-76
2021/04/05 08:22:28;;;;;;;3.67;2.42;;;12.00;74.00;;;;;;4807279;29;20055;-84
2021/04/05 08:25:04;;;;;;;7.85;3.67;;;12.10;74.00;;;;;;4789258;29;20043;-79
2021/04/05 08:27:45;;;;;;;4.10;2.65;;;12.10;73.70;;;;;;4803120;29;20050;-77
2021/04/05 08:30:21;;;;;;;4.28;2.03;;;12.20;74.40;;;;;;4789786;29;20065;-78
2021/04/05 08:33:02;;;;;;;4.18;2.17;;;12.40;73.70;;;;;;4802592;29;20034;-77
2021/04/05 08:35:39;;;;;;;5.53;2.03;;;12.60;72.30;;;;;;4791066;29;20039;-77
2021/04/05 08:38:11;;;;;;;;;;;12.70;70.70;;;;;;4791168;29;20047;-80
2021/04/05 08:40:44;;;;;;;4.07;1.52;;;12.70;71.30;;;;;;4793197;29;20020;-81
2021/04/05 08:43:24;;;;;;;1.15;0.95;;;12.80;70.10;;;;;;4787371;29;20509;-80
2021/04/05 08:46:06;;;;;;;2.45;0.98;;;12.90;69.10;;;;;;4788908;29;20137;-80
2021/04/05 08:48:38;;;;;;;1.92;0.90;;;13.10;68.00;;;;;;4807968;29;20079;-80
2021/04/05 08:51:11;;;;;;;1.98;0.90;;;13.20;66.30;;;;;;4789152;29;20513;-79
2021/04/05 08:53:45;;;;;;;2.05;1.13;;;13.30;66.10;;;;;;4804306;29;20195;-79
2021/04/05 08:56:17;;;;;;;1.25;1.00;;;13.30;66.70;;;;;;4803524;29;20051;-79
2021/04/05 08:58:52;;;;;;;2.67;1.10;;;13.40;65.50;;;;;;4803098;29;20496;-80
2021/04/05 09:01:31;;;;;;;1.13;0.88;;;13.50;65.70;;;;;;4788378;29;20043;-80
2021/04/05 09:03:58;;;;;;;3.28;1.63;;;13.60;66.60;;;;;;4796394;29;20043;-79
2021/04/05 09:06:35;;;;;;;2.53;1.13;;;13.60;66.80;;;;;;4790985;29;20054;-79
2021/04/05 09:09:03;;;;;;;1.98;1.08;;;13.80;66.70;;;;;;4806419;29;20159;-79
2021/04/05 09:11:37;;;;;;;2.05;0.90;;;13.80;66.00;;;;;;4797672;29;20047;-79
2021/04/05 09:14:08;;;;;;;1.00;0.90;;;13.80;65.40;;;;;;4792852;29;20059;-78
2021/04/05 09:17:05;;;;;;;1.75;0.93;;;13.70;65.20;;;;;;4792890;29;20447;-75
2021/04/05 09:20:02;;;;;;;3.15;1.30;;;13.80;64.50;;;;;;4802273;29;20038;-76
2021/04/05 09:22:53;;;;;;;1.60;0.93;;;14.00;63.80;;;;;;4788335;29;20039;-76
2021/04/05 09:25:49;;;;;;;2.28;0.80;;;14.20;63.90;;;;;;4800351;29;20506;-76
2021/04/05 09:28:34;;;;;;;1.42;1.05;;;14.20;62.80;;;;;;4805216;29;20071;-77
2021/04/05 09:31:31;;;;;;;1.98;0.90;;;14.30;62.80;;;;;;4787899;29;20055;-78
2021/04/05 09:34:27;;;;;;;1.90;1.10;;;14.30;63.10;;;;;;4784463;29;20146;-77
2021/04/05 09:37:24;;;;;;;1.67;0.82;;;14.20;63.00;;;;;;4789960;29;20142;-78
2021/04/05 09:40:05;;;;;;;;;;;14.30;62.60;;;;;;4806857;29;20055;-77
2021/04/05 09:43:03;;;;;;;1.05;0.75;;;14.50;62.60;;;;;;4796936;29;19965;-77
2021/04/05 09:45:42;;;;;;;1.75;0.75;;;14.60;62.20;;;;;;4804292;29;20815;-78
2021/04/05 09:48:38;;;;;;;2.60;0.77;;;14.70;62.60;;;;;;4799134;29;20066;-78
2021/04/05 09:51:38;;;;;;;1.83;1.03;;;14.70;62.00;;;;;;4791647;29;20662;-78
2021/04/05 09:54:15;;;;;;;2.72;1.27;;;14.80;61.60;;;;;;4791177;29;20514;-76
2021/04/05 09:56:44;;;;;;;;;;;15.10;61.50;;;;;;4805475;29;20402;-77
2021/04/05 09:59:16;;;;;;;2.10;1.10;;;15.30;60.50;;;;;;4804199;29;19933;-78
2021/04/05 10:01:49;;;;;;;1.88;0.90;;;15.30;60.00;;;;;;4806703;29;20603;-77
2021/04/05 10:04:24;;;;;;;2.75;1.00;;;15.40;60.30;;;;;;4784443;29;20916;-77
2021/04/05 10:06:53;;;;;;;1.27;1.13;;;15.60;59.30;;;;;;4791222;29;20522;-77
2021/04/05 10:09:27;;;;;;;2.13;0.90;;;15.70;58.40;;;;;;4804822;29;20083;-77
2021/04/05 10:11:55;;;;;;;3.65;1.50;;;15.70;59.90;;;;;;4802791;29;20095;-77
2021/04/05 10:14:25;;;;;;;2.28;1.40;;;15.70;59.10;;;;;;4792354;29;20055;-77
2021/04/05 10:16:55;;;;;;;2.67;1.45;;;15.70;58.70;;;;;;4798736;29;20562;-77
2021/04/05 10:19:30;;;;;;;2.47;1.30;;;15.80;58.40;;;;;;4808774;29;20059;-77
2021/04/05 10:22:01;;;;;;;2.67;1.75;;;15.90;58.20;;;;;;4796656;29;20134;-77
2021/04/05 10:24:32;;;;;;;2.00;1.02;;;15.90;55.90;;;;;;4815806;29;20057;-77
2021/04/05 10:27:05;;;;;;;1.60;1.08;;;16.00;56.20;;;;;;4806309;29;20038;-78
2021/04/05 10:29:35;;;;;;;1.88;0.95;;;16.00;57.60;;;;;;4797830;29;20031;-77
2021/04/05 10:32:05;;;;;;;3.05;1.30;;;15.90;56.90;;;;;;4809561;29;20055;-77
2021/04/05 10:34:35;;;;;;;2.58;1.55;;;16.00;56.90;;;;;;4797314;29;20072;-77
2021/04/05 10:37:10;;;;;;;2.20;1.33;;;16.00;57.20;;;;;;4807919;29;20053;-77
2021/04/05 10:39:46;;;;;;;2.83;1.40;;;16.10;57.10;;;;;;4791528;29;20039;-77
2021/04/05 10:42:20;;;;;;;2.25;1.60;;;16.00;56.00;;;;;;4794743;29;20042;-78
2021/04/05 10:44:49;;;;;;;3.10;2.25;;;16.00;56.20;;;;;;4798455;29;20047;-77
2021/04/05 10:47:23;;;;;;;6.07;3.85;;;16.00;56.20;;;;;;4795466;29;20047;-77
2021/04/05 10:49:54;;;;;;;7.45;4.00;;;16.00;55.10;;;;;;4795695;29;20047;-77
2021/04/05 10:52:26;;;;;;;3.00;2.03;;;16.20;55.90;;;;;;4802470;29;20054;-79
2021/04/05 10:54:55;;;;;;;2.70;1.83;;;16.30;55.40;;;;;;4794425;29;20055;-78
2021/04/05 10:57:31;;;;;;;2.53;1.60;;;16.30;55.20;;;;;;4809411;29;20050;-77
2021/04/05 11:00:01;;;;;;;3.28;1.95;;;16.50;54.40;;;;;;4791140;29;20517;-77
2021/04/05 11:02:33;;;;;;;8.25;5.43;;;16.70;54.50;;;;;;4795494;29;20415;-77
2021/04/05 11:05:06;;;;;;;5.95;4.45;;;16.80;54.70;;;;;;4793727;29;20045;-77
2021/04/05 11:07:35;;;;;;;4.40;1.98;;;17.00;54.30;;;;;;4794724;29;20038;-77
2021/04/05 11:10:06;;;;;;;2.60;1.63;;;17.00;54.60;;;;;;4798625;29;20070;-78
2021/04/05 11:12:37;;;;;;;2.83;1.80;;;16.80;53.90;;;;;;4796932;29;20513;-78
2021/04/05 11:15:09;;;;;;;3.30;2.60;;;16.70;54.00;;;;;;4796606;29;20046;-78
2021/04/05 11:17:41;;;;;;;2.35;1.40;;;16.80;54.00;;;;;;4798547;29;20118;-77
2021/04/05 11:20:12;;;;;;;2.63;1.33;;;17.00;53.80;;;;;;4795584;29;20274;-77
2021/04/05 11:22:40;;;;;;;3.97;1.40;;;17.00;53.90;;;;;;4792887;29;20118;-77
2021/04/05 11:25:12;;;;;;;3.47;1.63;;;17.10;54.10;;;;;;4790236;29;20423;-77
2021/04/05 11:27:46;;;;;;;10.48;5.85;;;17.40;54.10;;;;;;4786258;29;20051;-78
2021/04/05 11:30:23;;;;;;;2.50;1.92;;;17.40;53.50;;;;;;4795113;29;20058;-77
2021/04/05 11:32:52;;;;;;;3.60;1.42;;;17.40;53.50;;;;;;4795614;29;20053;-77
2021/04/05 11:35:28;;;;;;;2.42;1.50;;;17.60;53.70;;;;;;4794017;29;20051;-78
2021/04/05 11:38:00;;;;;;;2.42;1.88;;;17.80;53.90;;;;;;4799542;29;20079;-77
2021/04/05 11:40:30;;;;;;;2.47;1.80;;;17.80;52.80;;;;;;4809945;29;20521;-77
2021/04/05 11:43:01;;;;;;;4.78;3.03;;;17.90;54.00;;;;;;4810631;29;20050;-77
2021/04/05 11:45:31;;;;;;;1.75;0.93;;;18.10;53.80;;;;;;4791971;29;20521;-78
2021/04/05 11:48:02;;;;;;;1.55;1.10;;;18.10;52.60;;;;;;4793486;29;20133;-78
2021/04/05 11:50:31;;;;;;;2.17;0.88;;;18.20;53.30;;;;;;4808921;29;21130;-77
2021/04/05 11:53:05;;;;;;;14.10;11.02;;;18.20;52.20;;;;;;4786375;29;20433;-77
2021/04/05 11:55:37;;;;;;;4.20;2.22;;;18.50;52.70;;;;;;4796860;29;20058;-77
2021/04/05 11:58:11;;;;;;;4.30;1.60;;;18.40;52.10;;;;;;4809391;29;20055;-77
2021/04/05 12:00:43;;;;;;;2.38;1.98;;;18.50;51.40;;;;;;4792505;29;20053;-77
2021/04/05 12:03:21;;;;;;;3.17;1.20;;;18.70;51.70;;;;;;4799089;29;20134;-77
2021/04/05 12:06:01;;;;;;;1.95;1.05;;;18.70;50.70;;;;;;4795644;29;20127;-77
2021/04/05 12:08:33;;;;;;;1.83;1.08;;;18.70;50.80;;;;;;4805704;29;20074;-77
2021/04/05 12:11:05;;;;;;;2.22;0.80;;;18.70;50.90;;;;;;4796194;29;20523;-77
2021/04/05 12:13:39;;;;;;;1.35;0.80;;;18.50;51.00;;;;;;4793395;29;20055;-77
2021/04/05 12:16:08;;;;;;;1.20;0.88;;;18.60;50.90;;;;;;4793833;29;20049;-77
2021/04/05 12:18:36;;;;;;;1.70;1.20;;;18.70;51.60;;;;;;4791389;29;20129;-77
2021/04/05 12:21:08;;;;;;;2.42;1.15;;;18.80;51.80;;;;;;4796016;29;20423;-77
2021/04/05 12:23:36;;;;;;;5.00;3.05;;;18.80;51.40;;;;;;4793323;29;20121;-77
2021/04/05 12:26:04;;;;;;;4.45;2.72;;;18.80;52.10;;;;;;4792121;29;20138;-78
2021/04/05 12:28:35;;;;;;;2.88;1.23;;;18.90;51.80;;;;;;4793764;29;20066;-77
2021/04/05 12:31:04;;;;;;;2.20;1.20;;;19.00;51.70;;;;;;4799824;29;20522;-77
2021/04/05 12:33:53;;;;;;;2.97;1.60;;;19.10;52.20;;;;;;4792641;29;20056;-78
2021/04/05 12:36:31;;;;;;;3.10;1.40;;;19.10;51.70;;;;;;4793877;29;20070;-77
2021/04/05 12:39:00;;;;;;;1.98;1.13;;;19.10;51.80;;;;;;4792797;29;20434;-77
2021/04/05 12:41:35;;;;;;;2.60;1.02;;;19.00;51.70;;;;;;4794440;29;20061;-77
2021/04/05 12:44:04;;;;;;;1.88;0.98;;;18.90;51.20;;;;;;4797272;29;20043;-77
2021/04/05 12:46:35;;;;;;;4.30;0.93;;;18.90;51.90;;;;;;4810683;29;20123;-77
2021/04/05 12:49:05;;;;;;;1.67;1.00;;;18.90;51.50;;;;;;4790702;29;20595;-77
2021/04/05 12:51:35;;;;;;;1.58;1.05;;;19.00;52.10;;;;;;4793421;29;20054;-78
2021/04/05 12:54:06;;;;;;;1.65;0.82;;;19.00;52.70;;;;;;4795452;29;20053;-78
2021/04/05 12:56:37;;;;;;;2.33;1.13;;;19.00;53.20;;;;;;4791745;29;20123;-77
2021/04/05 12:59:05;;;;;;;3.95;1.25;;;19.20;53.80;;;;;;4792048;29;20273;-78
2021/04/05 13:01:35;;;;;;;2.05;1.20;;;19.10;54.10;;;;;;4780449;29;20158;-78
2021/04/05 13:04:05;;;;;;;1.58;1.00;;;19.10;54.40;;;;;;4793667;29;20065;-77
2021/04/05 13:06:46;;;;;;;1.80;0.93;;;19.30;53.60;;;;;;4807965;29;20057;-77
2021/04/05 13:09:19;;;;;;;1.98;1.27;;;19.30;54.20;;;;;;4795550;29;20525;-78
2021/04/05 13:11:56;;;;;;;1.25;0.90;;;19.20;54.70;;;;;;4789161;29;20112;-77
2021/04/05 13:14:28;;;;;;;6.43;2.53;;;19.10;54.30;;;;;;4809460;29;20045;-78
2021/04/05 13:17:01;;;;;;;2.72;1.70;;;19.20;57.00;;;;;;4794937;29;20050;-77
2021/04/05 13:19:33;;;;;;;2.28;1.35;;;19.10;55.60;;;;;;4793273;29;20071;-77
2021/04/05 13:22:03;;;;;;;2.95;1.23;;;19.00;56.10;;;;;;4790972;29;20171;-78
2021/04/05 13:24:34;;;;;;;2.85;1.05;;;19.10;57.20;;;;;;4805093;29;20066;-77
2021/04/05 13:27:04;;;;;;;2.30;1.08;;;19.00;59.90;;;;;;4788429;29;20043;-78